Airfield :
LOGIN :

Register | Disclaimer

   EN    FR    IT 

 










Legend :    VFR   Marginal VFR   IFR   Intensive IFR   Very Intensive IFR
Visi :
Ceiling :
>= 8 km
>= 3000ft
5 to 8 km
1000 to 3000 ft
1500m to 5 km
500 to 1000 ft
800 to 1500m
200 to 500 ft
< 800m
< 200 ft
Symbols :   Thunderstorms  Fog  Heavy snow  Heavy precipitations  Wind > 20 kt
SIGMETs :     Misc.  Thunderstorms  Icing  Turbulence  Mountain Waves  Volcanic Ashes







- Airport Elevation : 79 ft
- IATA code : SPU


LDSP - Split

CURRENT METAR :
  • 221330Z 24009KT 9999 VCTS FEW038 FEW042CB 21/14 Q1015 NOSIG

EXPIRED METARs :
  • 221300Z 23010KT 9999 FEW035 21/13 Q1015 NOSIG
  • 221230Z 22008KT 9999 FEW040 21/14 Q1015 NOSIG
  • 221200Z 25006KT 190V280 9999 FEW040 SCT065 22/14 Q1015 NOSIG
  • 221130Z 24008KT 9999 FEW035 SCT065 21/14 Q1015 NOSIG
  • 221100Z 24008KT 200V270 9999 FEW035 SCT065 21/14 Q1015 NOSIG
  • 221030Z VRB05KT 9999 VCTS FEW030 FEW032CB 22/14 Q1015 BECMG TL1100 23008KT FEW030

TAF TAF LDSP
Valid from the 22 at 12:00 until the 23 at 12:00 UTC


221125Z 2212/2312 23008KT 9999 FEW040 TX22/2213Z TN13/2304Z
PROB30
TEMPO 2212/2217 TSRA FEW030CB SCT040
BECMG 2216/2218 34005KT
BECMG 2309/2311 23011KT
No reported NOTAMs for that airfield.
1 SIGMET reported for the Zagreb FIR (LDZO) :
 
Severe turbulence
LDZO SIGMET 3 VALID 221130/221530 LDZA
LDZO ZAGREB FIR SEV TURB FCST SE OF LINE N4257 E01742 - N4211 E01643 FL250/380 STNR NC=



MET'MAP, your aeronautical weather chart ! - Copyright ORBIFLY December 2007 - Disclaimer

ORBIFLY MET'MAP TEAM :

Programming & Development : Alexandra Zaïnal
Concept & Development : Baudouin d'Aumeries
Co-Development & Prog : Marc-Olivier Méhu
Technical & hardware support : Manuel Goepfert

Contact : metmap@orbifly.com




SOURCES & CREDITS :

   NOAA